Portada
METAR-TAF:

METAR-TAF

Aeropuertos :

Fuerteventura, España

Aeropuerto de Fuerteventura

latitud: 28-27N, longitud: 013-52W, altitud: 22 m

Observación

El informe se hizo hace 59 minutos, a las 03:00 UTC
Viento 17 kt del noreste
Temperatura 21°C
Humedad 78%
Presión 1019 hPa
Visibilidad 10 km o más
Cielo cubierto a una altura de 2400 ft

METAR: GCFV 290300Z AUTO 04017KT 9999 OVC024 21/17 Q1019

Hora: 03:59 (03:59 UTC)

Pronóstico

El informe se hizo hace 1 hora y 59 minutos, a las 02:00 UTC
Pronóstico válido del 29 a las 03 UTC al 30 a las 03 UTC
Viento 14 kt del noreste
Visibilidad 10 km o más
Nubes dispersas a una altura de 2000 ft
Evolucionando progresivamente
del 29 a las 20 UTC al 29 a las 22 UTC
Viento 8 kt del norte-noroeste

TAF: GCFV 290200Z 2903/3003 04014KT 9999 SCT020 TX24/2913Z TN17/2906Z BECMG 2920/2922 34008KT

Observaciones y pronósticos meteorológicos de más de 4000 aeropuertos (mensajes METAR y TAF).

Los puntos amarillos y rojos representan las estaciones disponibles.

Ponga el ratón en el punto deseado para ver el nombre de la estación.

Haga clic para ver las observaciones y los pronósticos meteorológicos.

Para cambiar el mapa : haga clic en los botones verdes con una cruz de color negro para hacer un zoom, en el botón verde con un guión para alejar o en las flechas verdes para mapas adyacentes.


METAR-TAF: